Time;durP1;ratioP1;P1;durP2;ratioP2;P2;SDS_P1;SDS_P2;PMS_P1;PMS_P2;Temp;Humidity;BMP_temperature;BMP_pressure;BME280_temperature;BME280_humidity;BME280_pressure;Samples;Min_cycle;Max_cycle;Signal;HPM_P1;HPM_P2
2023/10/03 00:02:08;;;;;;;25.80;13.82;;;17.20;99.90;;;;;;4981211;28;20226;-65
2023/10/03 00:04:35;;;;;;;31.25;13.35;;;17.10;99.90;;;;;;5008798;28;20322;-65
2023/10/03 00:07:02;;;;;;;33.10;13.90;;;17.00;99.90;;;;;;5004602;28;20201;-65
2023/10/03 00:09:30;;;;;;;28.20;14.45;;;17.00;99.90;;;;;;5000918;28;20208;-65
2023/10/03 00:11:56;;;;;;;29.63;14.10;;;17.20;99.90;;;;;;5017536;28;20202;-65
2023/10/03 00:14:26;;;;;;;24.85;14.52;;;17.10;99.90;;;;;;5010389;28;20202;-65
2023/10/03 00:16:54;;;;;;;28.10;14.52;;;17.10;99.90;;;;;;4979717;28;20220;-65
2023/10/03 00:19:21;;;;;;;28.77;15.07;;;17.10;99.90;;;;;;5006121;28;20869;-65
2023/10/03 00:21:48;;;;;;;25.13;13.35;;;17.10;99.90;;;;;;4995351;28;20201;-65
2023/10/03 00:24:16;;;;;;;24.95;13.40;;;17.10;99.90;;;;;;4994185;28;20208;-65
2023/10/03 00:26:44;;;;;;;25.02;13.40;;;17.00;99.90;;;;;;5006120;28;20201;-65
2023/10/03 00:29:14;;;;;;;27.08;12.90;;;17.10;99.90;;;;;;5008939;28;20797;-65
2023/10/03 00:31:42;;;;;;;25.88;13.45;;;17.40;99.90;;;;;;4966840;28;20609;-65
2023/10/03 00:34:09;;;;;;;23.42;13.13;;;17.20;99.90;;;;;;5009012;28;20202;-65
2023/10/03 00:36:36;;;;;;;27.70;14.05;;;17.20;99.90;;;;;;5008347;28;20773;-65
2023/10/03 00:39:06;;;;;;;27.42;13.60;;;17.10;99.90;;;;;;5005652;28;20306;-65
2023/10/03 00:41:34;;;;;;;25.48;12.88;;;17.20;99.90;;;;;;4994716;28;20221;-65
2023/10/03 00:44:04;;;;;;;22.33;12.32;;;17.10;99.90;;;;;;5000508;28;20623;-65
2023/10/03 00:46:32;;;;;;;27.95;13.15;;;17.10;99.90;;;;;;4972102;28;20763;-65
2023/10/03 00:49:08;;;;;;;24.90;12.10;;;17.00;99.90;;;;;;5011966;28;20253;-65
2023/10/03 00:51:36;;;;;;;24.42;12.02;;;17.10;99.90;;;;;;5006182;28;20409;-65
2023/10/03 00:54:04;;;;;;;26.63;12.48;;;16.90;99.90;;;;;;5016382;28;20244;-65
2023/10/03 00:56:31;;;;;;;24.65;12.35;;;17.00;99.90;;;;;;4993901;28;20422;-65
2023/10/03 00:58:58;;;;;;;23.67;12.40;;;16.90;99.90;;;;;;5015538;28;20225;-65
2023/10/03 01:01:28;;;;;;;27.05;12.70;;;16.90;99.90;;;;;;5007693;28;20193;-65
2023/10/03 01:03:56;;;;;;;25.20;12.63;;;16.90;99.90;;;;;;4986446;28;20233;-65
2023/10/03 01:06:25;;;;;;;25.98;13.40;;;16.90;99.90;;;;;;5011979;28;20201;-65
2023/10/03 01:08:52;;;;;;;29.83;12.95;;;16.80;99.90;;;;;;5018671;28;20209;-65
2023/10/03 01:11:20;;;;;;;25.02;12.27;;;16.90;99.90;;;;;;5001681;28;20251;-65
2023/10/03 01:13:49;;;;;;;20.60;12.32;;;16.90;99.90;;;;;;5016410;28;20968;-65
2023/10/03 01:16:23;;;;;;;25.85;12.57;;;16.90;99.90;;;;;;5017553;28;20208;-65
2023/10/03 01:18:52;;;;;;;25.75;11.60;;;16.90;99.90;;;;;;4983727;28;20236;-65
2023/10/03 01:21:21;;;;;;;20.55;11.55;;;16.90;99.90;;;;;;5016558;28;20244;-65
2023/10/03 01:23:49;;;;;;;22.27;12.52;;;16.80;99.90;;;;;;5018717;28;20194;-65
2023/10/03 01:26:17;;;;;;;26.98;12.00;;;16.90;99.90;;;;;;4986076;28;20295;-65
2023/10/03 01:28:44;;;;;;;25.13;11.85;;;16.90;99.90;;;;;;5019543;28;21356;-65
2023/10/03 01:31:11;;;;;;;20.00;11.30;;;16.80;99.90;;;;;;5005794;28;20233;-65
2023/10/03 01:33:39;;;;;;;24.70;11.95;;;16.80;99.90;;;;;;5010714;28;20279;-65
2023/10/03 01:36:06;;;;;;;20.48;11.70;;;16.90;99.90;;;;;;4987280;28;20750;-65
2023/10/03 01:38:33;;;;;;;20.98;11.25;;;16.90;99.90;;;;;;5017753;28;20584;-65
2023/10/03 01:41:01;;;;;;;20.80;11.80;;;16.80;99.90;;;;;;4998209;28;20209;-65
2023/10/03 01:43:28;;;;;;;19.27;10.25;;;16.90;99.90;;;;;;4998629;28;20202;-65
2023/10/03 01:45:55;;;;;;;24.20;10.35;;;16.80;99.90;;;;;;5007933;28;20207;-65
2023/10/03 01:48:23;;;;;;;23.05;11.00;;;16.90;99.90;;;;;;5005941;28;20233;-65
2023/10/03 01:50:51;;;;;;;21.73;10.88;;;16.90;99.90;;;;;;4975326;28;20308;-65
2023/10/03 01:53:18;;;;;;;17.50;8.88;;;16.90;99.90;;;;;;5014352;28;20220;-65
2023/10/03 01:55:45;;;;;;;22.95;10.82;;;16.80;99.90;;;;;;5002591;28;21183;-65
2023/10/03 01:58:14;;;;;;;27.52;11.10;;;14.80;99.90;;;;;;5015798;28;20632;-65
2023/10/03 02:00:41;;;;;;;21.88;9.07;;;16.90;99.90;;;;;;5005857;28;20217;-65
2023/10/03 02:03:12;;;;;;;16.02;8.77;;;16.90;99.90;;;;;;5002107;28;20283;-65
2023/10/03 02:05:39;;;;;;;20.52;8.95;;;17.00;99.90;;;;;;5006376;28;20681;-65
2023/10/03 02:08:12;;;;;;;16.30;8.98;;;17.10;99.90;;;;;;4983280;28;20218;-65
2023/10/03 02:10:40;;;;;;;17.17;8.45;;;16.90;99.90;;;;;;5017205;28;20198;-65
2023/10/03 02:13:12;;;;;;;16.95;7.82;;;17.00;99.90;;;;;;5000412;28;21280;-65
2023/10/03 02:15:40;;;;;;;14.98;7.45;;;17.00;99.90;;;;;;5018243;28;20756;-65
2023/10/03 02:18:09;;;;;;;21.67;8.45;;;16.90;99.90;;;;;;4998334;28;20229;-65
2023/10/03 02:20:47;;;;;;;15.27;8.00;;;16.90;99.90;;;;;;5004658;28;20212;-65
2023/10/03 02:23:19;;;;;;;20.65;7.82;;;16.90;99.90;;;;;;4978202;28;20233;-65
2023/10/03 02:25:46;;;;;;;11.88;7.00;;;16.90;99.90;;;;;;5015967;28;20260;-65
2023/10/03 02:28:16;;;;;;;17.77;8.00;;;17.00;99.90;;;;;;5000176;28;20709;-65
2023/10/03 02:30:45;;;;;;;14.38;8.07;;;17.00;99.90;;;;;;5011732;28;20237;-65
2023/10/03 02:33:14;;;;;;;16.92;7.50;;;16.90;99.90;;;;;;4999266;28;20201;-65
2023/10/03 02:35:42;;;;;;;13.43;7.80;;;16.90;99.90;;;;;;5004001;28;20205;-65
2023/10/03 02:38:12;;;;;;;13.00;7.30;;;17.00;99.90;;;;;;4982611;28;20232;-65
2023/10/03 02:40:40;;;;;;;15.18;7.63;;;18.60;99.90;;;;;;5014568;28;20202;-65
2023/10/03 02:43:10;;;;;;;18.92;8.40;;;17.00;99.90;;;;;;4989345;28;20208;-65
2023/10/03 02:45:37;;;;;;;20.00;7.95;;;17.00;99.90;;;;;;5012516;28;20233;-65
2023/10/03 02:48:14;;;;;;;14.88;7.93;;;17.10;99.90;;;;;;5000332;28;20311;-65
2023/10/03 02:50:42;;;;;;;11.93;7.00;;;17.00;99.90;;;;;;5012056;28;20201;-65
2023/10/03 02:53:12;;;;;;;16.63;7.18;;;17.00;99.90;;;;;;4991141;28;20226;-65
2023/10/03 02:55:41;;;;;;;16.98;8.10;;;17.00;99.90;;;;;;5013329;28;20723;-65
2023/10/03 02:58:09;;;;;;;17.25;7.78;;;17.00;99.90;;;;;;4989947;28;20220;-65
2023/10/03 03:00:37;;;;;;;13.57;7.30;;;17.00;99.90;;;;;;5016171;28;20197;-65
2023/10/03 03:03:07;;;;;;;16.02;8.10;;;17.00;99.90;;;;;;4998814;28;20233;-65
2023/10/03 03:05:36;;;;;;;14.10;7.70;;;16.70;99.90;;;;;;5016825;28;20518;-65
2023/10/03 03:08:11;;;;;;;16.98;7.40;;;17.00;99.90;;;;;;4987935;28;20216;-65
2023/10/03 03:10:40;;;;;;;11.50;6.93;;;17.00;99.90;;;;;;5014594;28;20622;-65
2023/10/03 03:13:08;;;;;;;15.55;8.15;;;17.00;99.90;;;;;;5003575;28;21109;-65
2023/10/03 03:15:38;;;;;;;13.52;7.20;;;17.00;99.90;;;;;;5012669;28;20252;-65
2023/10/03 03:18:06;;;;;;;15.07;7.18;;;17.00;99.90;;;;;;5008329;28;20295;-65
2023/10/03 03:20:37;;;;;;;25.40;8.00;;;16.90;99.90;;;;;;5014303;28;20206;-65
2023/10/03 03:23:06;;;;;;;18.52;7.70;;;16.90;99.90;;;;;;4985619;28;20218;-65
2023/10/03 03:25:36;;;;;;;16.25;7.32;;;16.90;99.90;;;;;;5010066;28;20197;-65
2023/10/03 03:28:13;;;;;;;14.88;7.60;;;16.90;99.90;;;;;;5019203;28;20276;-65
2023/10/03 03:30:45;;;;;;;17.30;7.50;;;16.90;99.90;;;;;;4982555;28;20241;-65
2023/10/03 03:33:14;;;;;;;14.40;7.53;;;16.80;99.90;;;;;;5014428;28;20196;-65
2023/10/03 03:35:42;;;;;;;19.15;7.57;;;16.90;99.90;;;;;;5004469;28;20210;-65
2023/10/03 03:38:15;;;;;;;18.08;8.35;;;16.90;99.90;;;;;;5016428;28;20205;-65
2023/10/03 03:40:45;;;;;;;17.42;7.32;;;16.80;99.90;;;;;;4986365;28;20757;-65
2023/10/03 03:43:13;;;;;;;16.63;6.88;;;16.90;99.90;;;;;;5017066;28;20197;-65
2023/10/03 03:45:40;;;;;;;14.82;7.97;;;16.90;99.90;;;;;;4992421;28;20217;-65
2023/10/03 03:48:07;;;;;;;13.95;7.85;;;16.80;99.90;;;;;;5013804;28;20263;-65
2023/10/03 03:50:35;;;;;;;15.02;7.18;;;16.80;99.90;;;;;;4997050;28;20212;-66
2023/10/03 03:53:03;;;;;;;13.52;7.57;;;16.80;99.90;;;;;;5014165;28;20237;-65
2023/10/03 03:55:30;;;;;;;16.90;7.95;;;16.80;99.90;;;;;;4986180;28;20228;-65
2023/10/03 03:57:59;;;;;;;17.35;8.05;;;16.90;99.90;;;;;;5012647;28;20209;-65
2023/10/03 04:00:28;;;;;;;15.73;7.53;;;16.80;99.90;;;;;;4990854;28;20676;-65
2023/10/03 04:02:59;;;;;;;16.90;7.97;;;16.90;99.90;;;;;;4996065;28;20198;-65
2023/10/03 04:05:27;;;;;;;14.32;7.90;;;16.80;99.90;;;;;;4997053;28;20336;-65
2023/10/03 04:07:56;;;;;;;13.52;7.43;;;17.00;99.90;;;;;;5015719;28;20206;-65
2023/10/03 04:10:23;;;;;;;16.90;7.60;;;17.00;99.90;;;;;;4985511;28;20713;-65
2023/10/03 04:12:50;;;;;;;17.95;7.50;;;17.00;99.90;;;;;;5019875;28;20325;-65
2023/10/03 04:15:19;;;;;;;15.73;8.20;;;17.00;99.90;;;;;;5003019;28;20197;-65
2023/10/03 04:17:48;;;;;;;14.45;7.78;;;17.10;99.90;;;;;;5005060;28;20267;-65
2023/10/03 04:20:23;;;;;;;18.70;7.82;;;17.20;99.90;;;;;;5012731;28;20225;-65
2023/10/03 04:22:51;;;;;;;17.30;8.60;;;17.00;99.90;;;;;;5004840;28;20304;-65
2023/10/03 04:25:19;;;;;;;14.40;7.40;;;17.10;99.90;;;;;;4983088;28;20609;-65
2023/10/03 04:27:48;;;;;;;18.00;9.25;;;17.10;99.90;;;;;;5016044;28;21029;-65
2023/10/03 04:30:15;;;;;;;17.55;7.88;;;17.10;99.90;;;;;;5007054;28;20233;-65
2023/10/03 04:32:43;;;;;;;17.60;8.38;;;17.10;99.90;;;;;;5002711;28;20292;-65
2023/10/03 04:35:13;;;;;;;16.85;8.27;;;17.10;99.90;;;;;;5017551;28;20339;-65
2023/10/03 04:37:42;;;;;;;18.65;8.52;;;17.10;99.90;;;;;;5002593;28;20344;-65
2023/10/03 04:40:11;;;;;;;20.35;8.32;;;17.00;99.90;;;;;;4998552;28;20312;-65
2023/10/03 04:42:40;;;;;;;16.65;8.25;;;17.20;99.90;;;;;;5010471;28;20217;-65
2023/10/03 04:45:10;;;;;;;17.50;8.48;;;17.10;99.90;;;;;;5013592;28;20198;-65
2023/10/03 04:47:38;;;;;;;17.50;7.80;;;17.20;99.90;;;;;;4996466;28;20630;-65
2023/10/03 04:50:05;;;;;;;18.85;8.98;;;17.20;99.90;;;;;;5013852;28;20194;-65
2023/10/03 04:52:32;;;;;;;15.63;8.13;;;17.30;99.90;;;;;;5004237;28;21112;-65
2023/10/03 04:54:59;;;;;;;17.08;7.55;;;17.20;99.90;;;;;;5019263;28;20204;-65
2023/10/03 04:57:27;;;;;;;17.70;8.93;;;17.30;99.90;;;;;;4983105;28;20765;-65
2023/10/03 04:59:56;;;;;;;16.23;7.50;;;17.30;99.90;;;;;;5003545;28;20519;-65
2023/10/03 05:02:23;;;;;;;20.50;8.77;;;17.10;99.90;;;;;;4986185;28;20224;-65
2023/10/03 05:04:50;;;;;;;17.67;8.38;;;17.40;99.90;;;;;;5009201;28;20278;-65
2023/10/03 05:07:16;;;;;;;17.02;7.75;;;17.30;99.90;;;;;;5016435;28;20217;-65
2023/10/03 05:09:43;;;;;;;19.17;8.77;;;17.40;99.90;;;;;;5005128;28;20213;-65
2023/10/03 05:12:10;;;;;;;17.27;8.52;;;17.30;99.90;;;;;;4979610;28;20210;-65
2023/10/03 05:14:40;;;;;;;15.52;7.85;;;17.40;99.90;;;;;;5015277;28;20342;-65
2023/10/03 05:17:08;;;;;;;15.48;8.18;;;17.30;99.90;;;;;;5003725;28;20289;-65
2023/10/03 05:19:36;;;;;;;18.15;8.80;;;17.30;99.90;;;;;;5006446;28;20775;-65
2023/10/03 05:22:04;;;;;;;20.88;9.27;;;17.40;99.90;;;;;;5017114;28;20931;-65
2023/10/03 05:24:32;;;;;;;20.50;8.30;;;17.40;99.90;;;;;;5003356;28;20838;-65
2023/10/03 05:26:59;;;;;;;17.50;8.50;;;17.50;99.90;;;;;;5016571;28;20255;-65
2023/10/03 05:29:27;;;;;;;16.83;7.38;;;17.50;99.90;;;;;;4988369;28;20264;-65
2023/10/03 05:31:54;;;;;;;17.13;8.38;;;17.40;99.90;;;;;;4998696;28;20205;-65
2023/10/03 05:34:22;;;;;;;20.23;9.05;;;17.60;99.90;;;;;;5001595;28;20624;-65
2023/10/03 05:36:49;;;;;;;16.92;7.57;;;17.80;99.90;;;;;;5013990;28;20206;-65
2023/10/03 05:39:16;;;;;;;20.00;8.30;;;17.70;99.90;;;;;;5001918;28;20699;-65
2023/10/03 05:41:43;;;;;;;18.25;8.75;;;17.70;99.90;;;;;;5016721;28;20209;-65
2023/10/03 05:44:12;;;;;;;17.70;8.38;;;17.70;99.90;;;;;;4974351;28;20225;-65
2023/10/03 05:46:39;;;;;;;28.48;8.23;;;17.70;99.90;;;;;;5002248;28;20233;-65
2023/10/03 05:49:06;;;;;;;15.25;8.02;;;17.80;99.90;;;;;;4998186;28;20785;-65
2023/10/03 05:51:34;;;;;;;20.00;8.38;;;17.80;99.90;;;;;;4997321;28;20602;-65
2023/10/03 05:54:02;;;;;;;16.83;8.43;;;17.70;99.90;;;;;;5009866;28;20222;-65
2023/10/03 05:56:29;;;;;;;21.10;9.30;;;17.80;99.90;;;;;;5005404;28;20566;-65
2023/10/03 05:58:56;;;;;;;15.45;8.48;;;17.80;99.90;;;;;;4987571;28;20254;-65
2023/10/03 06:01:22;;;;;;;19.27;8.45;;;17.80;99.90;;;;;;5016400;28;20766;-65
2023/10/03 06:03:49;;;;;;;18.80;8.52;;;17.90;99.90;;;;;;5005712;28;20638;-65
2023/10/03 06:06:16;;;;;;;15.73;8.13;;;17.90;99.90;;;;;;5001097;28;20232;-65
2023/10/03 06:08:48;;;;;;;18.90;8.35;;;17.90;99.90;;;;;;5013459;28;20220;-65
2023/10/03 06:11:15;;;;;;;16.70;8.82;;;17.60;99.90;;;;;;5002389;28;20286;-65
2023/10/03 06:13:44;;;;;;;17.85;7.78;;;17.90;99.90;;;;;;5009646;28;21091;-65
2023/10/03 06:16:12;;;;;;;22.58;9.68;;;17.90;99.90;;;;;;4980863;28;20249;-65
2023/10/03 06:18:39;;;;;;;18.10;7.72;;;17.90;99.90;;;;;;4992427;28;21879;-66
2023/10/03 06:21:07;;;;;;;17.88;7.63;;;17.90;99.90;;;;;;5005292;28;20225;-65
2023/10/03 06:23:34;;;;;;;17.63;8.35;;;17.90;99.90;;;;;;5011638;28;20206;-65
2023/10/03 06:26:02;;;;;;;16.38;8.63;;;17.90;99.90;;;;;;4997746;28;20209;-65
2023/10/03 06:28:29;;;;;;;20.60;9.30;;;18.00;99.90;;;;;;5011839;28;20198;-65
2023/10/03 06:30:56;;;;;;;20.48;10.07;;;18.00;99.90;;;;;;4983865;28;20743;-64
2023/10/03 06:33:23;;;;;;;18.90;8.70;;;18.00;99.90;;;;;;5016205;28;20201;-65
2023/10/03 06:35:51;;;;;;;20.15;8.73;;;18.10;99.90;;;;;;4989808;28;20611;-65
2023/10/03 06:38:19;;;;;;;19.15;8.93;;;18.20;99.90;;;;;;5017582;28;20228;-64
2023/10/03 06:40:46;;;;;;;16.52;7.72;;;18.20;99.90;;;;;;4992540;28;20554;-65
2023/10/03 06:43:14;;;;;;;16.48;8.52;;;18.20;99.90;;;;;;5015983;28;20201;-64
2023/10/03 06:45:41;;;;;;;21.38;8.65;;;18.20;99.90;;;;;;4978561;28;20645;-65
2023/10/03 06:48:10;;;;;;;15.55;8.40;;;18.40;99.90;;;;;;5021566;28;20204;-65
2023/10/03 06:50:37;;;;;;;20.10;8.45;;;18.50;99.90;;;;;;4995321;28;20205;-65
2023/10/03 06:53:05;;;;;;;20.80;8.43;;;18.50;99.90;;;;;;5005118;28;20582;-65
2023/10/03 06:55:35;;;;;;;18.92;8.43;;;18.30;99.90;;;;;;5007176;28;20197;-65
2023/10/03 06:58:02;;;;;;;20.45;8.55;;;18.50;99.90;;;;;;5011943;28;20198;-64
2023/10/03 07:00:32;;;;;;;17.83;8.23;;;18.60;99.90;;;;;;5016359;28;20316;-65
2023/10/03 07:02:59;;;;;;;16.85;8.40;;;18.60;99.90;;;;;;4975329;28;20225;-64
2023/10/03 07:05:25;;;;;;;18.27;8.25;;;18.60;99.90;;;;;;5002412;28;20201;-65
2023/10/03 07:07:53;;;;;;;21.52;9.32;;;18.60;99.90;;;;;;4995635;28;20600;-64
2023/10/03 07:10:21;;;;;;;16.92;8.23;;;18.60;99.90;;;;;;5017011;28;20194;-65
2023/10/03 07:12:48;;;;;;;18.10;8.43;;;18.60;99.90;;;;;;4983192;28;23352;-65
2023/10/03 07:15:15;;;;;;;19.15;8.48;;;18.70;99.90;;;;;;5011825;28;20232;-65
2023/10/03 07:17:43;;;;;;;16.23;7.80;;;19.80;99.90;;;;;;4976018;28;21003;-65
2023/10/03 07:20:12;;;;;;;22.38;8.98;;;18.60;99.90;;;;;;5011646;28;20240;-65
2023/10/03 07:22:40;;;;;;;17.73;7.40;;;18.60;99.90;;;;;;4989013;28;20253;-64
2023/10/03 07:25:09;;;;;;;17.60;7.53;;;18.60;99.90;;;;;;5016241;28;20202;-65
2023/10/03 07:27:36;;;;;;;18.55;8.23;;;18.60;99.90;;;;;;4995694;28;20458;-65
2023/10/03 07:30:03;;;;;;;17.10;8.10;;;18.60;99.90;;;;;;5015649;28;20652;-65
2023/10/03 07:32:32;;;;;;;13.48;7.95;;;18.60;99.90;;;;;;4985026;28;20209;-65
2023/10/03 07:35:01;;;;;;;22.38;7.85;;;18.70;99.90;;;;;;5009597;28;20217;-64
2023/10/03 07:37:27;;;;;;;13.55;7.10;;;18.70;99.90;;;;;;4990497;28;20511;-65
2023/10/03 07:39:55;;;;;;;16.08;7.80;;;18.80;99.90;;;;;;5012414;28;20225;-64
2023/10/03 07:42:23;;;;;;;15.38;7.72;;;19.20;99.90;;;;;;5008295;28;20246;-65
2023/10/03 07:44:52;;;;;;;14.40;7.32;;;18.90;99.90;;;;;;4993713;28;20230;-64
2023/10/03 07:47:20;;;;;;;19.65;7.50;;;18.00;99.90;;;;;;5016182;28;20244;-65
2023/10/03 07:49:48;;;;;;;18.40;7.60;;;18.80;99.90;;;;;;4975222;28;20268;-65
2023/10/03 07:52:18;;;;;;;13.30;6.97;;;18.80;99.90;;;;;;5012795;28;20225;-65
2023/10/03 07:54:49;;;;;;;17.40;7.47;;;19.00;99.90;;;;;;4983450;28;20218;-64
2023/10/03 07:57:16;;;;;;;19.42;7.75;;;19.00;99.90;;;;;;5012690;28;20292;-65
2023/10/03 07:59:43;;;;;;;16.73;7.70;;;19.00;99.90;;;;;;5000414;28;20228;-65
2023/10/03 08:02:12;;;;;;;13.35;6.60;;;19.00;99.90;;;;;;5009983;28;20260;-65
2023/10/03 08:04:41;;;;;;;17.42;7.00;;;19.10;99.90;;;;;;4961464;28;20243;-65
2023/10/03 08:07:08;;;;;;;11.65;6.47;;;19.10;99.90;;;;;;4998488;28;20295;-65
2023/10/03 08:09:36;;;;;;;15.48;6.78;;;19.10;99.90;;;;;;4986073;28;20225;-65
2023/10/03 08:12:11;;;;;;;13.00;6.53;;;18.60;99.90;;;;;;5003690;28;20232;-65
2023/10/03 08:14:39;;;;;;;14.60;6.30;;;19.00;99.90;;;;;;5012903;28;20254;-64
2023/10/03 08:17:06;;;;;;;14.43;6.07;;;18.80;99.90;;;;;;4990138;28;20608;-65
2023/10/03 08:19:33;;;;;;;10.27;4.95;;;19.10;99.90;;;;;;4963093;28;20332;-65
2023/10/03 08:22:00;;;;;;;12.82;5.50;;;19.10;99.90;;;;;;5005842;28;21273;-64
2023/10/03 08:24:28;;;;;;;13.27;5.82;;;21.00;99.90;;;;;;4991525;28;20232;-64
2023/10/03 08:26:59;;;;;;;10.65;4.97;;;19.20;99.90;;;;;;4994523;28;21043;-64
2023/10/03 08:29:26;;;;;;;10.43;4.95;;;18.90;99.90;;;;;;4998894;28;20237;-65
2023/10/03 08:31:57;;;;;;;13.52;4.72;;;19.20;99.90;;;;;;4997247;28;20241;-64
2023/10/03 08:34:25;;;;;;;12.73;5.45;;;19.20;99.90;;;;;;4966691;28;20329;-64
2023/10/03 08:36:54;;;;;;;9.70;5.32;;;19.30;99.90;;;;;;5008397;28;20220;-65
2023/10/03 08:39:23;;;;;;;13.65;5.07;;;19.30;99.90;;;;;;4994647;28;20241;-65
2023/10/03 08:42:12;;;;;;;9.90;4.32;;;19.20;99.90;;;;;;4996578;28;20225;-65
2023/10/03 08:44:49;;;;;;;9.23;3.78;;;19.30;99.90;;;;;;4999810;28;20449;-65
2023/10/03 08:47:18;;;;;;;10.88;4.30;;;19.30;99.90;;;;;;4982264;28;20316;-64
2023/10/03 08:49:56;;;;;;;6.57;4.13;;;19.30;99.90;;;;;;4984915;28;20229;-65
2023/10/03 08:52:38;;;;;;;9.00;4.13;;;19.40;99.90;;;;;;4983410;28;20251;-64
2023/10/03 08:55:08;;;;;;;6.07;3.97;;;19.30;99.90;;;;;;4995632;28;21026;-64
2023/10/03 08:57:37;;;;;;;9.35;4.38;;;19.40;99.90;;;;;;4993330;28;20328;-64
2023/10/03 09:00:06;;;;;;;12.77;4.63;;;19.40;99.90;;;;;;5002852;28;20230;-65
2023/10/03 09:02:45;;;;;;;10.60;4.53;;;19.30;99.90;;;;;;4998351;28;20221;-64
2023/10/03 09:05:19;;;;;;;13.63;4.82;;;19.20;99.90;;;;;;5010335;28;21144;-64
2023/10/03 09:07:46;;;;;;;13.50;5.00;;;19.20;99.90;;;;;;4989325;28;20232;-64
2023/10/03 09:10:22;;;;;;;13.65;5.05;;;19.10;99.90;;;;;;4999055;28;20221;-64
2023/10/03 09:12:51;;;;;;;9.23;4.38;;;19.10;99.90;;;;;;4984897;28;20275;-64
2023/10/03 09:15:18;;;;;;;8.60;4.35;;;19.00;99.90;;;;;;4996393;28;20225;-64
2023/10/03 09:17:49;;;;;;;7.95;4.35;;;19.00;99.90;;;;;;4999173;28;20229;-65
2023/10/03 09:20:21;;;;;;;11.25;4.63;;;19.00;99.90;;;;;;5012712;28;20201;-64
2023/10/03 09:22:47;;;;;;;11.93;4.57;;;19.00;99.90;;;;;;4981834;28;20220;-64
2023/10/03 09:25:16;;;;;;;9.18;4.32;;;19.10;99.90;;;;;;5010406;28;20208;-64
2023/10/03 09:27:44;;;;;;;140.40;11.80;;;;;;;;;;4972021;28;20312;-64
2023/10/03 09:30:22;;;;;;;8.45;4.13;;;19.00;99.90;;;;;;4997287;28;20229;-64
2023/10/03 09:32:50;;;;;;;10.30;4.03;;;19.00;99.90;;;;;;5001875;28;21003;-65
2023/10/03 09:35:17;;;;;;;10.60;4.25;;;19.00;99.90;;;;;;4992546;28;20205;-64
2023/10/03 09:37:48;;;;;;;20.30;5.38;;;19.00;99.90;;;;;;4966231;28;21004;-64
2023/10/03 09:40:18;;;;;;;13.27;4.85;;;19.00;99.90;;;;;;5012739;28;20229;-64
2023/10/03 09:42:48;;;;;;;13.25;4.32;;;18.90;99.90;;;;;;4983613;28;21007;-64
2023/10/03 09:45:18;;;;;;;8.18;4.53;;;18.80;99.90;;;;;;5007147;28;20218;-65
2023/10/03 09:47:46;;;;;;;9.93;3.90;;;18.50;99.90;;;;;;5009574;28;20714;-64
2023/10/03 09:50:14;;;;;;;12.50;4.90;;;18.60;99.90;;;;;;4998631;28;20231;-65
2023/10/03 09:52:44;;;;;;;10.75;4.55;;;18.50;99.90;;;;;;4980247;28;20237;-65
2023/10/03 09:55:26;;;;;;;12.68;5.32;;;18.40;99.90;;;;;;5016441;28;20194;-65
2023/10/03 09:57:54;;;;;;;10.68;4.40;;;18.10;99.90;;;;;;4992292;28;20234;-65
2023/10/03 10:00:38;;;;;;;5.55;4.07;;;18.20;99.90;;;;;;4996922;28;20225;-65
2023/10/03 10:03:07;;;;;;;7.18;3.75;;;15.40;99.90;;;;;;4997072;28;20228;-65
2023/10/03 10:05:35;;;;;;;5.30;3.47;;;18.10;99.90;;;;;;4999278;28;20236;-65
2023/10/03 10:08:09;;;;;;;16.10;4.65;;;18.10;99.90;;;;;;4956420;28;20256;-65
2023/10/03 10:10:36;;;;;;;14.32;4.05;;;18.10;99.90;;;;;;4988568;28;20224;-65
2023/10/03 10:13:12;;;;;;;11.38;4.30;;;18.10;99.90;;;;;;4984283;28;20213;-65
2023/10/03 10:19:01;;;;;;;10.43;2.85;;;17.90;99.90;;;;;;4947503;22;20255;-65
2023/10/03 10:21:31;;;;;;;4.75;2.80;;;17.90;99.90;;;;;;4980066;28;20227;-65
2023/10/03 10:24:25;;;;;;;4.82;2.80;;;17.70;99.90;;;;;;4961813;28;20870;-65
2023/10/03 10:26:53;;;;;;;5.18;2.33;;;18.50;99.90;;;;;;4978596;28;20229;-65
2023/10/03 10:29:21;;;;;;;3.80;1.75;;;17.60;99.90;;;;;;4946353;28;20218;-65
2023/10/03 10:31:57;;;;;;;5.13;2.15;;;16.00;99.90;;;;;;4976586;28;20249;-65
2023/10/03 10:34:46;;;;;;;5.88;2.08;;;17.40;99.90;;;;;;4981396;28;20226;-65
2023/10/03 10:37:17;;;;;;;9.32;1.98;;;17.30;99.90;;;;;;4983385;28;20233;-65
2023/10/03 10:40:21;;;;;;;7.50;1.75;;;17.00;99.90;;;;;;4961555;28;20233;-65
2023/10/03 10:43:11;;;;;;;13.48;2.45;;;17.20;99.90;;;;;;4993161;28;20230;-66
2023/10/03 10:45:42;;;;;;;3.35;1.25;;;17.10;99.90;;;;;;4960979;28;20217;-66
2023/10/03 10:48:11;;;;;;;4.45;1.13;;;17.50;99.90;;;;;;4977940;28;20229;-66
2023/10/03 10:51:13;;;;;;;6.68;1.30;;;17.00;99.90;;;;;;4977219;28;20606;-65
2023/10/03 10:53:42;;;;;;;5.65;1.13;;;17.10;99.90;;;;;;4952363;28;20237;-65
2023/10/03 10:56:10;;;;;;;3.08;0.98;;;16.60;99.90;;;;;;4981218;28;20279;-65
2023/10/03 10:58:50;;;;;;;2.40;1.02;;;17.00;99.90;;;;;;4985987;28;20220;-65
2023/10/03 11:01:18;;;;;;;3.28;0.95;;;18.30;99.90;;;;;;4960320;28;21007;-65
2023/10/03 11:03:44;;;;;;;7.65;1.40;;;16.90;99.90;;;;;;4976331;28;20218;-65
2023/10/03 11:06:17;;;;;;;5.45;1.50;;;16.90;99.90;;;;;;4978985;28;20206;-65
2023/10/03 11:08:45;;;;;;;1.92;0.85;;;16.70;99.90;;;;;;4977466;28;20695;-65
2023/10/03 11:11:12;;;;;;;2.42;0.77;;;16.40;99.90;;;;;;4938423;28;20229;-65
2023/10/03 11:13:45;;;;;;;2.90;0.80;;;16.20;99.90;;;;;;4980869;28;20353;-65
2023/10/03 11:16:20;;;;;;;2.17;0.70;;;16.20;99.90;;;;;;4977624;28;20225;-65
2023/10/03 11:18:48;;;;;;;3.10;0.70;;;16.00;99.90;;;;;;4984481;28;20590;-65
2023/10/03 11:21:17;;;;;;;3.75;0.60;;;16.10;99.90;;;;;;4979017;28;20315;-65
2023/10/03 11:24:15;;;;;;;1.38;0.65;;;16.10;99.90;;;;;;4978997;28;20229;-65
2023/10/03 11:26:44;;;;;;;0.95;0.60;;;16.10;99.90;;;;;;4980383;28;20221;-64
2023/10/03 11:29:11;;;;;;;0.30;0.25;;;16.10;99.90;;;;;;4983869;28;21365;-64
2023/10/03 11:31:40;;;;;;;2.45;0.55;;;16.10;99.90;;;;;;4973264;28;20416;-65
2023/10/03 11:34:07;;;;;;;1.58;0.40;;;16.20;99.90;;;;;;4976482;28;20209;-65
2023/10/03 11:36:43;;;;;;;2.53;0.55;;;16.20;99.90;;;;;;4978788;28;20237;-65
2023/10/03 11:39:12;;;;;;;1.75;0.60;;;16.10;99.90;;;;;;4977873;28;20802;-65
2023/10/03 11:41:40;;;;;;;0.82;0.45;;;16.10;99.90;;;;;;4953647;28;20265;-65
2023/10/03 11:44:20;;;;;;;2.88;0.55;;;16.10;99.90;;;;;;4976730;28;20214;-65
2023/10/03 11:46:48;;;;;;;6.47;0.90;;;16.20;99.90;;;;;;4994966;28;20342;-64
2023/10/03 11:49:15;;;;;;;2.67;0.57;;;16.00;99.90;;;;;;4960564;28;20241;-64
2023/10/03 11:51:44;;;;;;;2.03;0.50;;;16.00;99.90;;;;;;4965846;28;20225;-65
2023/10/03 11:54:14;;;;;;;1.38;0.70;;;16.10;99.90;;;;;;4963276;28;21109;-64
2023/10/03 11:56:45;;;;;;;4.35;0.70;;;16.10;99.90;;;;;;4935246;28;20756;-65
2023/10/03 11:59:14;;;;;;;1.35;0.47;;;16.10;99.90;;;;;;4967564;28;20347;-65
2023/10/03 12:01:43;;;;;;;4.72;0.68;;;15.90;99.90;;;;;;4965539;28;20727;-65
2023/10/03 12:04:11;;;;;;;4.40;0.70;;;16.00;99.90;;;;;;4948618;28;20532;-64
2023/10/03 12:06:38;;;;;;;2.58;0.77;;;15.90;99.90;;;;;;4986158;28;20349;-64
2023/10/03 12:09:08;;;;;;;1.95;0.73;;;16.20;99.90;;;;;;4967001;28;20836;-64
2023/10/03 12:11:36;;;;;;;2.65;0.60;;;16.20;99.90;;;;;;4952541;28;20693;-64
2023/10/03 12:14:03;;;;;;;1.73;0.88;;;16.20;99.90;;;;;;4971484;28;20538;-65
2023/10/03 12:16:30;;;;;;;1.80;0.80;;;16.20;99.90;;;;;;4976869;28;20868;-64
2023/10/03 12:18:57;;;;;;;1.90;0.65;;;16.40;99.90;;;;;;4971237;28;20209;-64
2023/10/03 12:21:25;;;;;;;2.53;0.93;;;16.10;99.90;;;;;;4979890;28;20225;-64
2023/10/03 12:23:51;;;;;;;1.08;0.52;;;16.30;99.90;;;;;;4982499;28;20592;-65
2023/10/03 12:26:20;;;;;;;3.28;0.82;;;16.20;99.90;;;;;;4948500;28;20725;-64
2023/10/03 12:28:47;;;;;;;4.90;1.40;;;16.20;99.90;;;;;;4973755;28;20227;-64
2023/10/03 12:31:14;;;;;;;3.67;0.80;;;16.20;99.90;;;;;;4971771;28;20233;-64
2023/10/03 12:33:41;;;;;;;4.22;0.95;;;16.20;99.90;;;;;;4969788;28;20218;-64
2023/10/03 12:36:11;;;;;;;3.55;0.70;;;16.00;99.90;;;;;;4958861;28;20696;-64
2023/10/03 12:38:38;;;;;;;6.55;0.65;;;16.00;99.90;;;;;;4996210;28;20226;-65
2023/10/03 12:41:05;;;;;;;3.10;0.57;;;15.50;99.90;;;;;;4960245;28;20695;-65
2023/10/03 12:43:35;;;;;;;1.63;0.52;;;15.50;99.90;;;;;;4968767;28;20351;-64
2023/10/03 12:46:01;;;;;;;3.33;1.33;;;15.50;99.90;;;;;;4978270;28;20202;-64
2023/10/03 12:48:28;;;;;;;3.25;0.95;;;15.60;99.90;;;;;;4993640;28;20229;-64
2023/10/03 12:50:55;;;;;;;4.75;0.80;;;15.60;99.90;;;;;;4962419;28;20206;-64
2023/10/03 12:53:22;;;;;;;4.43;0.90;;;15.50;99.90;;;;;;4977563;28;20917;-64